Terminal Aerodrome Forecast
Issued by NWS Goodland, KS

Home | Current Version | Previous Version | Text Only | Print | Product List | Glossary On
Versions: 1 2 3 4 5 6 7 8 9 10 11 12 13 14 15 16
586
FTUS43 KGLD 112327
TAFGLD
TAF
KGLD 112327Z 1200/1224 34009KT P6SM SCT250
     FM121800 01005KT 5SM BR OVC015
     FM122100 09008KT 4SM BR OVC007=

USA.gov is the U.S. government's official web portal to all federal, state and local government web resources and services.